sensor_id;sensor_type;location;lat;lon;timestamp;pressure;altitude;pressure_sealevel;temperature;humidity
64115;BME280;62188;35.640;139.748;2023-04-21T00:01:12;100476.66;;;26.40;33.50
64115;BME280;62188;35.640;139.748;2023-04-21T00:03:36;100469.60;;;26.13;33.01
64115;BME280;62188;35.640;139.748;2023-04-21T00:06:01;100463.70;;;26.43;33.03
64115;BME280;62188;35.640;139.748;2023-04-21T00:08:26;100459.81;;;26.49;32.84
64115;BME280;62188;35.640;139.748;2023-04-21T00:10:52;100457.68;;;26.59;32.58
64115;BME280;62188;35.640;139.748;2023-04-21T00:13:16;100457.19;;;26.93;32.26
64115;BME280;62188;35.640;139.748;2023-04-21T00:15:42;100454.31;;;26.46;31.95
64115;BME280;62188;35.640;139.748;2023-04-21T00:18:07;100451.91;;;26.46;32.07
64115;BME280;62188;35.640;139.748;2023-04-21T00:20:34;100447.05;;;26.94;32.16
64115;BME280;62188;35.640;139.748;2023-04-21T00:22:58;100448.38;;;27.08;32.15
64115;BME280;62188;35.640;139.748;2023-04-21T00:25:24;100445.71;;;27.29;32.03
64115;BME280;62188;35.640;139.748;2023-04-21T00:27:49;100433.88;;;27.32;31.76
64115;BME280;62188;35.640;139.748;2023-04-21T00:30:14;100437.73;;;27.74;31.70
64115;BME280;62188;35.640;139.748;2023-04-21T00:32:39;100438.32;;;27.18;30.40
64115;BME280;62188;35.640;139.748;2023-04-21T00:35:06;100436.83;;;27.17;30.74
64115;BME280;62188;35.640;139.748;2023-04-21T00:37:30;100441.57;;;26.87;30.79
64115;BME280;62188;35.640;139.748;2023-04-21T00:39:56;100431.20;;;27.07;30.88
64115;BME280;62188;35.640;139.748;2023-04-21T00:42:21;100430.38;;;27.23;30.94
64115;BME280;62188;35.640;139.748;2023-04-21T00:44:46;100423.44;;;27.11;30.95
64115;BME280;62188;35.640;139.748;2023-04-21T00:47:12;100426.51;;;27.38;30.81
64115;BME280;62188;35.640;139.748;2023-04-21T00:49:38;100424.22;;;27.12;30.74
64115;BME280;62188;35.640;139.748;2023-04-21T00:52:05;100424.14;;;27.54;30.88
64115;BME280;62188;35.640;139.748;2023-04-21T00:54:28;100423.58;;;27.52;30.79
64115;BME280;62188;35.640;139.748;2023-04-21T00:56:54;100413.64;;;27.61;30.72
64115;BME280;62188;35.640;139.748;2023-04-21T00:59:18;100413.73;;;27.51;30.64
64115;BME280;62188;35.640;139.748;2023-04-21T01:01:44;100410.26;;;27.81;30.69
64115;BME280;62188;35.640;139.748;2023-04-21T01:04:09;100412.20;;;27.46;30.70
64115;BME280;62188;35.640;139.748;2023-04-21T01:06:36;100411.03;;;27.44;30.87
64115;BME280;62188;35.640;139.748;2023-04-21T01:09:00;100411.23;;;27.36;31.14
64115;BME280;62188;35.640;139.748;2023-04-21T01:11:26;100405.70;;;27.57;31.26
64115;BME280;62188;35.640;139.748;2023-04-21T01:13:53;100404.30;;;27.60;31.11
64115;BME280;62188;35.640;139.748;2023-04-21T01:16:18;100402.34;;;27.57;31.04
64115;BME280;62188;35.640;139.748;2023-04-21T01:18:42;100397.37;;;27.38;30.59
64115;BME280;62188;35.640;139.748;2023-04-21T01:21:07;100389.64;;;27.15;30.62
64115;BME280;62188;35.640;139.748;2023-04-21T01:23:33;100384.51;;;27.30;30.53
64115;BME280;62188;35.640;139.748;2023-04-21T01:25:58;100384.49;;;27.31;30.62
64115;BME280;62188;35.640;139.748;2023-04-21T01:28:23;100377.25;;;27.37;30.62
64115;BME280;62188;35.640;139.748;2023-04-21T01:30:48;100380.91;;;27.21;30.92
64115;BME280;62188;35.640;139.748;2023-04-21T01:33:14;100378.09;;;27.01;31.25
64115;BME280;62188;35.640;139.748;2023-04-21T01:35:39;100381.66;;;26.97;31.48
64115;BME280;62188;35.640;139.748;2023-04-21T01:38:05;100375.48;;;27.33;31.68
64115;BME280;62188;35.640;139.748;2023-04-21T01:40:30;100376.06;;;27.46;31.26
64115;BME280;62188;35.640;139.748;2023-04-21T01:42:55;100383.16;;;27.65;31.02
64115;BME280;62188;35.640;139.748;2023-04-21T01:45:20;100374.13;;;27.27;30.90
64115;BME280;62188;35.640;139.748;2023-04-21T01:47:46;100372.16;;;27.88;30.85
64115;BME280;62188;35.640;139.748;2023-04-21T01:50:11;100360.69;;;27.82;30.68
64115;BME280;62188;35.640;139.748;2023-04-21T01:52:37;100357.94;;;28.03;30.55
64115;BME280;62188;35.640;139.748;2023-04-21T01:55:03;100357.54;;;27.88;30.40
64115;BME280;62188;35.640;139.748;2023-04-21T01:57:28;100357.59;;;28.27;30.44
64115;BME280;62188;35.640;139.748;2023-04-21T01:59:53;100350.16;;;28.24;30.30
64115;BME280;62188;35.640;139.748;2023-04-21T02:02:18;100349.72;;;28.42;29.95
64115;BME280;62188;35.640;139.748;2023-04-21T02:04:43;100339.95;;;28.60;29.60
64115;BME280;62188;35.640;139.748;2023-04-21T02:07:08;100341.72;;;28.61;29.16
64115;BME280;62188;35.640;139.748;2023-04-21T02:09:34;100337.19;;;28.00;28.84
64115;BME280;62188;35.640;139.748;2023-04-21T02:12:00;100331.93;;;28.21;28.61
64115;BME280;62188;35.640;139.748;2023-04-21T02:14:25;100331.95;;;28.39;28.87
64115;BME280;62188;35.640;139.748;2023-04-21T02:16:50;100322.63;;;28.46;29.14
64115;BME280;62188;35.640;139.748;2023-04-21T02:19:15;100322.94;;;28.69;28.51
64115;BME280;62188;35.640;139.748;2023-04-21T02:21:40;100320.22;;;28.85;28.33
64115;BME280;62188;35.640;139.748;2023-04-21T02:24:06;100311.53;;;28.47;27.60
64115;BME280;62188;35.640;139.748;2023-04-21T02:26:32;100308.03;;;28.21;26.74
64115;BME280;62188;35.640;139.748;2023-04-21T02:28:57;100307.30;;;28.10;26.61
64115;BME280;62188;35.640;139.748;2023-04-21T02:31:23;100311.05;;;28.27;26.65
64115;BME280;62188;35.640;139.748;2023-04-21T02:33:47;100302.69;;;28.02;26.79
64115;BME280;62188;35.640;139.748;2023-04-21T02:36:13;100301.43;;;28.01;26.54
64115;BME280;62188;35.640;139.748;2023-04-21T02:38:38;100296.84;;;27.79;27.20
64115;BME280;62188;35.640;139.748;2023-04-21T02:41:03;100291.14;;;27.84;27.25
64115;BME280;62188;35.640;139.748;2023-04-21T02:43:29;100286.47;;;28.13;27.22
64115;BME280;62188;35.640;139.748;2023-04-21T02:45:55;100281.17;;;28.38;27.12
64115;BME280;62188;35.640;139.748;2023-04-21T02:48:19;100278.26;;;28.40;27.03
64115;BME280;62188;35.640;139.748;2023-04-21T02:50:45;100271.59;;;28.43;26.68
64115;BME280;62188;35.640;139.748;2023-04-21T02:53:09;100265.50;;;28.07;26.90
64115;BME280;62188;35.640;139.748;2023-04-21T02:55:36;100261.79;;;28.75;27.28
64115;BME280;62188;35.640;139.748;2023-04-21T02:58:01;100263.75;;;28.36;28.72
64115;BME280;62188;35.640;139.748;2023-04-21T03:00:26;100269.22;;;28.23;29.32
64115;BME280;62188;35.640;139.748;2023-04-21T03:02:52;100264.32;;;28.43;28.71
64115;BME280;62188;35.640;139.748;2023-04-21T03:05:17;100264.81;;;28.79;28.03
64115;BME280;62188;35.640;139.748;2023-04-21T03:07:42;100262.58;;;28.48;28.08
64115;BME280;62188;35.640;139.748;2023-04-21T03:10:08;100261.69;;;28.82;28.50
64115;BME280;62188;35.640;139.748;2023-04-21T03:12:32;100259.40;;;28.78;28.59
64115;BME280;62188;35.640;139.748;2023-04-21T03:14:58;100250.86;;;28.22;28.85
64115;BME280;62188;35.640;139.748;2023-04-21T03:17:23;100251.76;;;28.42;29.37
64115;BME280;62188;35.640;139.748;2023-04-21T03:19:48;100245.34;;;28.21;29.81
64115;BME280;62188;35.640;139.748;2023-04-21T03:22:13;100246.88;;;27.94;30.14
64115;BME280;62188;35.640;139.748;2023-04-21T03:24:39;100245.21;;;28.14;30.26
64115;BME280;62188;35.640;139.748;2023-04-21T03:27:06;100231.57;;;27.98;30.10
64115;BME280;62188;35.640;139.748;2023-04-21T03:29:29;100226.12;;;28.01;30.73
64115;BME280;62188;35.640;139.748;2023-04-21T03:31:55;100224.83;;;28.02;30.75
64115;BME280;62188;35.640;139.748;2023-04-21T03:34:20;100230.23;;;28.02;30.70
64115;BME280;62188;35.640;139.748;2023-04-21T03:36:45;100230.53;;;28.24;30.72
64115;BME280;62188;35.640;139.748;2023-04-21T03:39:11;100224.57;;;28.35;30.76
64115;BME280;62188;35.640;139.748;2023-04-21T03:41:36;100226.46;;;28.21;30.83
64115;BME280;62188;35.640;139.748;2023-04-21T03:44:01;100226.69;;;28.18;30.84
64115;BME280;62188;35.640;139.748;2023-04-21T03:46:27;100227.64;;;28.33;30.94
64115;BME280;62188;35.640;139.748;2023-04-21T03:48:52;100225.52;;;27.89;31.68
64115;BME280;62188;35.640;139.748;2023-04-21T03:51:17;100223.69;;;27.69;31.89
64115;BME280;62188;35.640;139.748;2023-04-21T03:53:43;100217.22;;;27.34;32.09
64115;BME280;62188;35.640;139.748;2023-04-21T03:56:08;100206.84;;;27.67;32.21
64115;BME280;62188;35.640;139.748;2023-04-21T03:58:35;100202.30;;;27.99;32.18
64115;BME280;62188;35.640;139.748;2023-04-21T04:00:59;100195.55;;;27.80;32.26
64115;BME280;62188;35.640;139.748;2023-04-21T04:03:24;100190.34;;;27.87;32.29
64115;BME280;62188;35.640;139.748;2023-04-21T04:05:50;100190.95;;;27.42;32.36
64115;BME280;62188;35.640;139.748;2023-04-21T04:08:15;100176.73;;;27.30;32.67
64115;BME280;62188;35.640;139.748;2023-04-21T04:10:40;100179.55;;;27.79;32.52
64115;BME280;62188;35.640;139.748;2023-04-21T04:13:05;100171.39;;;27.48;32.21
64115;BME280;62188;35.640;139.748;2023-04-21T04:15:31;100168.02;;;27.82;32.15
64115;BME280;62188;35.640;139.748;2023-04-21T04:17:56;100164.07;;;27.53;32.00
64115;BME280;62188;35.640;139.748;2023-04-21T04:20:22;100162.98;;;27.71;31.93
64115;BME280;62188;35.640;139.748;2023-04-21T04:22:47;100152.66;;;27.71;32.01
64115;BME280;62188;35.640;139.748;2023-04-21T04:25:13;100146.28;;;27.85;32.29
64115;BME280;62188;35.640;139.748;2023-04-21T04:27:38;100140.39;;;27.93;32.75
64115;BME280;62188;35.640;139.748;2023-04-21T04:30:03;100140.77;;;27.59;33.25
64115;BME280;62188;35.640;139.748;2023-04-21T04:32:28;100139.56;;;27.79;33.53
64115;BME280;62188;35.640;139.748;2023-04-21T04:34:54;100138.71;;;27.52;33.81
64115;BME280;62188;35.640;139.748;2023-04-21T04:37:19;100144.45;;;27.14;34.06
64115;BME280;62188;35.640;139.748;2023-04-21T04:39:45;100140.14;;;27.24;34.22
64115;BME280;62188;35.640;139.748;2023-04-21T04:42:10;100137.70;;;26.83;34.49
64115;BME280;62188;35.640;139.748;2023-04-21T04:44:36;100135.64;;;26.98;34.58
64115;BME280;62188;35.640;139.748;2023-04-21T04:47:00;100131.35;;;26.94;34.74
64115;BME280;62188;35.640;139.748;2023-04-21T04:49:26;100132.07;;;26.95;34.72
64115;BME280;62188;35.640;139.748;2023-04-21T04:51:51;100128.66;;;26.90;34.13
64115;BME280;62188;35.640;139.748;2023-04-21T04:54:17;100126.28;;;26.83;33.75
64115;BME280;62188;35.640;139.748;2023-04-21T04:56:42;100125.92;;;26.70;33.83
64115;BME280;62188;35.640;139.748;2023-04-21T04:59:07;100119.36;;;26.71;33.59
64115;BME280;62188;35.640;139.748;2023-04-21T05:01:33;100112.39;;;26.66;33.97
64115;BME280;62188;35.640;139.748;2023-04-21T05:03:58;100105.31;;;26.68;34.45
64115;BME280;62188;35.640;139.748;2023-04-21T05:06:23;100099.22;;;26.96;34.15
64115;BME280;62188;35.640;139.748;2023-04-21T05:08:48;100100.99;;;26.64;33.07
64115;BME280;62188;35.640;139.748;2023-04-21T05:11:14;100101.66;;;26.83;34.25
64115;BME280;62188;35.640;139.748;2023-04-21T05:13:40;100105.12;;;26.52;34.91
64115;BME280;62188;35.640;139.748;2023-04-21T05:16:05;100107.74;;;26.34;35.63
64115;BME280;62188;35.640;139.748;2023-04-21T05:18:30;100110.23;;;26.61;35.90
64115;BME280;62188;35.640;139.748;2023-04-21T05:20:55;100099.37;;;26.20;35.85
64115;BME280;62188;35.640;139.748;2023-04-21T05:23:20;100102.07;;;26.27;36.03
64115;BME280;62188;35.640;139.748;2023-04-21T05:25:46;100098.00;;;26.47;36.25
64115;BME280;62188;35.640;139.748;2023-04-21T05:28:11;100099.72;;;26.47;36.26
64115;BME280;62188;35.640;139.748;2023-04-21T05:30:36;100091.72;;;26.37;35.98
64115;BME280;62188;35.640;139.748;2023-04-21T05:33:01;100082.86;;;26.30;35.84
64115;BME280;62188;35.640;139.748;2023-04-21T05:35:29;100084.52;;;26.34;35.23
64115;BME280;62188;35.640;139.748;2023-04-21T05:37:52;100093.84;;;26.37;34.48
64115;BME280;62188;35.640;139.748;2023-04-21T05:40:17;100097.08;;;26.32;34.27
64115;BME280;62188;35.640;139.748;2023-04-21T05:42:48;100103.35;;;26.16;34.42
64115;BME280;62188;35.640;139.748;2023-04-21T05:45:09;100098.76;;;26.09;34.73
64115;BME280;62188;35.640;139.748;2023-04-21T05:47:34;100085.89;;;26.63;34.83
64115;BME280;62188;35.640;139.748;2023-04-21T05:49:59;100081.01;;;26.23;34.87
64115;BME280;62188;35.640;139.748;2023-04-21T05:52:25;100077.81;;;26.12;34.56
64115;BME280;62188;35.640;139.748;2023-04-21T05:54:50;100079.96;;;26.20;34.55
64115;BME280;62188;35.640;139.748;2023-04-21T05:57:15;100087.52;;;26.29;34.70
64115;BME280;62188;35.640;139.748;2023-04-21T05:59:41;100094.21;;;26.22;34.69
64115;BME280;62188;35.640;139.748;2023-04-21T06:02:06;100090.72;;;26.26;34.57
64115;BME280;62188;35.640;139.748;2023-04-21T06:04:31;100089.71;;;26.59;34.88
64115;BME280;62188;35.640;139.748;2023-04-21T06:06:56;100084.47;;;26.05;34.79
64115;BME280;62188;35.640;139.748;2023-04-21T06:09:22;100073.53;;;26.10;34.95
64115;BME280;62188;35.640;139.748;2023-04-21T06:11:47;100067.44;;;26.16;35.00
64115;BME280;62188;35.640;139.748;2023-04-21T06:14:12;100067.28;;;26.26;35.10
64115;BME280;62188;35.640;139.748;2023-04-21T06:16:37;100065.32;;;26.34;35.29
64115;BME280;62188;35.640;139.748;2023-04-21T06:19:03;100059.85;;;26.38;35.40
64115;BME280;62188;35.640;139.748;2023-04-21T06:21:29;100061.29;;;26.49;35.37
64115;BME280;62188;35.640;139.748;2023-04-21T06:23:54;100062.53;;;26.54;35.21
64115;BME280;62188;35.640;139.748;2023-04-21T06:26:19;100062.67;;;26.46;35.07
64115;BME280;62188;35.640;139.748;2023-04-21T06:28:44;100063.76;;;26.27;35.19
64115;BME280;62188;35.640;139.748;2023-04-21T06:31:10;100067.73;;;26.20;35.72
64115;BME280;62188;35.640;139.748;2023-04-21T06:33:35;100066.93;;;26.26;36.18
64115;BME280;62188;35.640;139.748;2023-04-21T06:36:00;100063.77;;;26.08;36.22
64115;BME280;62188;35.640;139.748;2023-04-21T06:38:26;100061.63;;;26.18;36.32
64115;BME280;62188;35.640;139.748;2023-04-21T06:40:51;100059.90;;;26.22;36.26
64115;BME280;62188;35.640;139.748;2023-04-21T06:43:17;100056.45;;;26.20;36.34
64115;BME280;62188;35.640;139.748;2023-04-21T06:45:42;100063.56;;;26.28;36.43
64115;BME280;62188;35.640;139.748;2023-04-21T06:48:08;100064.55;;;26.26;36.23
64115;BME280;62188;35.640;139.748;2023-04-21T06:50:33;100067.10;;;26.21;36.29
64115;BME280;62188;35.640;139.748;2023-04-21T06:52:59;100068.20;;;26.19;36.44
64115;BME280;62188;35.640;139.748;2023-04-21T06:55:24;100065.67;;;26.32;36.38
64115;BME280;62188;35.640;139.748;2023-04-21T06:57:49;100059.82;;;26.37;35.88
64115;BME280;62188;35.640;139.748;2023-04-21T07:00:15;100054.21;;;26.32;35.67
64115;BME280;62188;35.640;139.748;2023-04-21T07:02:40;100057.02;;;26.10;35.92
64115;BME280;62188;35.640;139.748;2023-04-21T07:05:05;100060.77;;;26.13;35.85
64115;BME280;62188;35.640;139.748;2023-04-21T07:07:30;100063.46;;;26.10;35.77
64115;BME280;62188;35.640;139.748;2023-04-21T07:09:56;100065.76;;;25.88;35.81
64115;BME280;62188;35.640;139.748;2023-04-21T07:12:21;100069.44;;;26.28;35.90
64115;BME280;62188;35.640;139.748;2023-04-21T07:14:46;100072.18;;;26.39;35.88
64115;BME280;62188;35.640;139.748;2023-04-21T07:17:12;100074.94;;;26.11;35.79
64115;BME280;62188;35.640;139.748;2023-04-21T07:19:37;100075.59;;;25.96;36.06
64115;BME280;62188;35.640;139.748;2023-04-21T07:22:02;100075.73;;;25.72;36.11
64115;BME280;62188;35.640;139.748;2023-04-21T07:24:28;100073.97;;;26.00;36.35
64115;BME280;62188;35.640;139.748;2023-04-21T07:26:53;100071.52;;;25.91;36.48
64115;BME280;62188;35.640;139.748;2023-04-21T07:29:18;100072.87;;;25.97;36.40
64115;BME280;62188;35.640;139.748;2023-04-21T07:31:44;100077.46;;;25.46;36.46
64115;BME280;62188;35.640;139.748;2023-04-21T07:34:09;100089.55;;;25.65;36.60
64115;BME280;62188;35.640;139.748;2023-04-21T07:36:34;100098.52;;;25.52;36.53
64115;BME280;62188;35.640;139.748;2023-04-21T07:39:00;100097.11;;;25.93;36.61
64115;BME280;62188;35.640;139.748;2023-04-21T07:41:25;100097.87;;;25.80;36.70
64115;BME280;62188;35.640;139.748;2023-04-21T07:43:50;100101.48;;;25.64;36.82
64115;BME280;62188;35.640;139.748;2023-04-21T07:46:16;100098.48;;;25.54;36.89
64115;BME280;62188;35.640;139.748;2023-04-21T07:48:42;100100.67;;;25.53;36.95
64115;BME280;62188;35.640;139.748;2023-04-21T07:51:06;100103.58;;;25.50;36.71
64115;BME280;62188;35.640;139.748;2023-04-21T07:53:32;100097.69;;;25.43;36.58
64115;BME280;62188;35.640;139.748;2023-04-21T07:55:57;100092.68;;;25.34;36.50
64115;BME280;62188;35.640;139.748;2023-04-21T07:58:23;100096.35;;;25.61;36.44
64115;BME280;62188;35.640;139.748;2023-04-21T08:00:48;100099.97;;;25.65;36.50
64115;BME280;62188;35.640;139.748;2023-04-21T08:03:13;100104.82;;;25.53;36.42
64115;BME280;62188;35.640;139.748;2023-04-21T08:05:39;100101.86;;;25.81;35.85
64115;BME280;62188;35.640;139.748;2023-04-21T08:08:04;100103.72;;;25.75;35.71
64115;BME280;62188;35.640;139.748;2023-04-21T08:10:29;100108.20;;;25.85;35.64
64115;BME280;62188;35.640;139.748;2023-04-21T08:12:55;100112.48;;;25.92;35.36
64115;BME280;62188;35.640;139.748;2023-04-21T08:15:20;100117.14;;;25.74;35.37
64115;BME280;62188;35.640;139.748;2023-04-21T08:17:46;100121.10;;;25.97;35.29
64115;BME280;62188;35.640;139.748;2023-04-21T08:20:12;100124.26;;;25.92;35.25
64115;BME280;62188;35.640;139.748;2023-04-21T08:22:37;100130.10;;;25.98;35.31
64115;BME280;62188;35.640;139.748;2023-04-21T08:25:02;100135.24;;;25.50;35.27
64115;BME280;62188;35.640;139.748;2023-04-21T08:27:27;100141.73;;;25.58;35.29
64115;BME280;62188;35.640;139.748;2023-04-21T08:29:53;100146.51;;;25.62;35.24
64115;BME280;62188;35.640;139.748;2023-04-21T08:32:18;100146.93;;;25.55;35.17
64115;BME280;62188;35.640;139.748;2023-04-21T08:34:43;100146.22;;;26.00;35.29
64115;BME280;62188;35.640;139.748;2023-04-21T08:37:09;100152.66;;;26.02;35.36
64115;BME280;62188;35.640;139.748;2023-04-21T08:39:34;100150.90;;;25.59;35.35
64115;BME280;62188;35.640;139.748;2023-04-21T08:42:00;100150.60;;;25.88;35.42
64115;BME280;62188;35.640;139.748;2023-04-21T08:44:25;100151.50;;;25.91;35.54
64115;BME280;62188;35.640;139.748;2023-04-21T08:46:51;100151.89;;;25.91;35.52
64115;BME280;62188;35.640;139.748;2023-04-21T08:49:19;100156.92;;;26.13;35.49
64115;BME280;62188;35.640;139.748;2023-04-21T08:51:41;100160.37;;;25.84;35.49
64115;BME280;62188;35.640;139.748;2023-04-21T08:54:07;100160.41;;;25.54;35.60
64115;BME280;62188;35.640;139.748;2023-04-21T08:56:32;100162.89;;;25.56;35.68
64115;BME280;62188;35.640;139.748;2023-04-21T08:58:57;100164.73;;;26.02;35.61
64115;BME280;62188;35.640;139.748;2023-04-21T09:01:23;100167.50;;;25.51;35.61
64115;BME280;62188;35.640;139.748;2023-04-21T09:03:48;100170.51;;;25.49;35.68
64115;BME280;62188;35.640;139.748;2023-04-21T09:06:14;100172.90;;;25.90;35.79
64115;BME280;62188;35.640;139.748;2023-04-21T09:08:43;100174.30;;;25.41;35.82
64115;BME280;62188;35.640;139.748;2023-04-21T09:11:06;100177.39;;;25.61;35.86
64115;BME280;62188;35.640;139.748;2023-04-21T09:13:31;100184.33;;;25.33;35.91
64115;BME280;62188;35.640;139.748;2023-04-21T09:15:55;100185.03;;;25.35;35.94
64115;BME280;62188;35.640;139.748;2023-04-21T09:18:22;100188.06;;;25.81;36.03
64115;BME280;62188;35.640;139.748;2023-04-21T09:20:48;100193.08;;;25.80;36.04
64115;BME280;62188;35.640;139.748;2023-04-21T09:23:12;100200.57;;;25.26;36.17
64115;BME280;62188;35.640;139.748;2023-04-21T09:25:40;100202.68;;;25.10;36.09
64115;BME280;62188;35.640;139.748;2023-04-21T09:28:01;100205.37;;;25.27;36.01
64115;BME280;62188;35.640;139.748;2023-04-21T09:30:28;100201.66;;;25.45;36.20
64115;BME280;62188;35.640;139.748;2023-04-21T09:32:56;100201.92;;;25.53;36.23
64115;BME280;62188;35.640;139.748;2023-04-21T09:35:19;100203.46;;;25.56;36.23
64115;BME280;62188;35.640;139.748;2023-04-21T09:37:44;100204.10;;;25.57;36.27
64115;BME280;62188;35.640;139.748;2023-04-21T09:40:13;100207.54;;;25.54;36.37
64115;BME280;62188;35.640;139.748;2023-04-21T09:42:35;100204.77;;;25.53;36.38
64115;BME280;62188;35.640;139.748;2023-04-21T09:45:00;100203.60;;;25.50;36.33
64115;BME280;62188;35.640;139.748;2023-04-21T09:47:29;100198.74;;;25.31;36.38
64115;BME280;62188;35.640;139.748;2023-04-21T09:49:52;100195.77;;;25.08;36.32
64115;BME280;62188;35.640;139.748;2023-04-21T09:52:18;100202.63;;;25.24;36.16
64115;BME280;62188;35.640;139.748;2023-04-21T09:54:48;100203.18;;;25.21;36.19
64115;BME280;62188;35.640;139.748;2023-04-21T09:57:07;100204.03;;;25.37;36.29
64115;BME280;62188;35.640;139.748;2023-04-21T09:59:36;100202.73;;;24.87;36.30
64115;BME280;62188;35.640;139.748;2023-04-21T10:01:59;100199.90;;;25.37;36.32
64115;BME280;62188;35.640;139.748;2023-04-21T10:04:25;100202.43;;;25.35;36.44
64115;BME280;62188;35.640;139.748;2023-04-21T10:06:49;100213.64;;;25.38;36.47
64115;BME280;62188;35.640;139.748;2023-04-21T10:09:15;100223.48;;;25.37;36.58
64115;BME280;62188;35.640;139.748;2023-04-21T10:11:41;100226.42;;;25.35;36.76
64115;BME280;62188;35.640;139.748;2023-04-21T10:14:05;100229.47;;;25.00;37.00
64115;BME280;62188;35.640;139.748;2023-04-21T10:16:31;100233.29;;;25.22;37.09
64115;BME280;62188;35.640;139.748;2023-04-21T10:18:55;100233.68;;;25.22;37.17
64115;BME280;62188;35.640;139.748;2023-04-21T10:21:22;100240.53;;;25.17;38.37
64115;BME280;62188;35.640;139.748;2023-04-21T10:23:47;100243.20;;;25.13;39.01
64115;BME280;62188;35.640;139.748;2023-04-21T10:26:15;100246.08;;;25.16;39.43
64115;BME280;62188;35.640;139.748;2023-04-21T10:28:45;100249.75;;;25.20;39.60
64115;BME280;62188;35.640;139.748;2023-04-21T10:31:16;100253.24;;;25.21;39.81
64115;BME280;62188;35.640;139.748;2023-04-21T10:33:28;100260.12;;;25.24;39.80
64115;BME280;62188;35.640;139.748;2023-04-21T10:36:00;100266.06;;;25.28;39.89
64115;BME280;62188;35.640;139.748;2023-04-21T10:40:44;100273.54;;;25.33;39.98
64115;BME280;62188;35.640;139.748;2023-04-21T10:45:35;100286.66;;;25.59;39.65
64115;BME280;62188;35.640;139.748;2023-04-21T10:48:01;100287.89;;;25.25;39.34
64115;BME280;62188;35.640;139.748;2023-04-21T10:50:29;100293.02;;;25.21;38.99
64115;BME280;62188;35.640;139.748;2023-04-21T10:52:57;100294.28;;;25.29;38.45
64115;BME280;62188;35.640;139.748;2023-04-21T10:55:16;100300.60;;;25.06;37.99
64115;BME280;62188;35.640;139.748;2023-04-21T10:57:43;100306.94;;;25.33;37.83
64115;BME280;62188;35.640;139.748;2023-04-21T11:00:13;100310.62;;;25.31;37.61
64115;BME280;62188;35.640;139.748;2023-04-21T11:02:33;100314.80;;;25.11;37.52
64115;BME280;62188;35.640;139.748;2023-04-21T11:04:58;100325.44;;;25.10;37.36
64115;BME280;62188;35.640;139.748;2023-04-21T11:07:25;100330.47;;;25.39;37.24
64115;BME280;62188;35.640;139.748;2023-04-21T11:12:17;100341.73;;;25.14;37.01
64115;BME280;62188;35.640;139.748;2023-04-21T11:14:41;100342.95;;;25.40;37.00
64115;BME280;62188;35.640;139.748;2023-04-21T11:17:07;100346.50;;;25.40;36.95
64115;BME280;62188;35.640;139.748;2023-04-21T11:19:32;100348.30;;;25.41;37.03
64115;BME280;62188;35.640;139.748;2023-04-21T11:21:55;100351.88;;;25.42;36.93
64115;BME280;62188;35.640;139.748;2023-04-21T11:24:21;100356.12;;;25.13;36.83
64115;BME280;62188;35.640;139.748;2023-04-21T11:26:45;100359.03;;;25.34;36.89
64115;BME280;62188;35.640;139.748;2023-04-21T11:29:12;100358.43;;;25.37;36.94
64115;BME280;62188;35.640;139.748;2023-04-21T11:31:44;100366.65;;;25.35;36.85
64115;BME280;62188;35.640;139.748;2023-04-21T11:34:03;100374.04;;;25.39;36.62
64115;BME280;62188;35.640;139.748;2023-04-21T11:36:28;100377.24;;;25.32;36.13
64115;BME280;62188;35.640;139.748;2023-04-21T11:38:52;100383.64;;;25.24;35.77
64115;BME280;62188;35.640;139.748;2023-04-21T11:41:22;100389.29;;;25.28;35.67
64115;BME280;62188;35.640;139.748;2023-04-21T11:43:46;100397.28;;;25.28;35.65
64115;BME280;62188;35.640;139.748;2023-04-21T11:46:16;100399.14;;;25.30;35.66
64115;BME280;62188;35.640;139.748;2023-04-21T11:48:34;100398.50;;;25.31;35.75
64115;BME280;62188;35.640;139.748;2023-04-21T11:51:00;100400.07;;;25.03;35.86
64115;BME280;62188;35.640;139.748;2023-04-21T11:53:25;100405.14;;;25.34;35.94
64115;BME280;62188;35.640;139.748;2023-04-21T11:55:52;100407.24;;;25.06;36.00
64115;BME280;62188;35.640;139.748;2023-04-21T11:58:16;100408.18;;;25.06;36.06
64115;BME280;62188;35.640;139.748;2023-04-21T12:00:43;100408.19;;;25.10;36.15
64115;BME280;62188;35.640;139.748;2023-04-21T12:03:09;100413.71;;;25.31;36.20
64115;BME280;62188;35.640;139.748;2023-04-21T12:05:36;100418.59;;;25.28;36.27
64115;BME280;62188;35.640;139.748;2023-04-21T12:07:57;100419.80;;;25.27;36.45
64115;BME280;62188;35.640;139.748;2023-04-21T12:10:23;100421.09;;;25.31;36.55
64115;BME280;62188;35.640;139.748;2023-04-21T12:12:48;100425.54;;;25.01;37.13
64115;BME280;62188;35.640;139.748;2023-04-21T12:15:19;100430.63;;;25.10;37.50
64115;BME280;62188;35.640;139.748;2023-04-21T12:17:41;100429.61;;;25.00;38.04
64115;BME280;62188;35.640;139.748;2023-04-21T12:20:07;100432.47;;;25.26;38.19
64115;BME280;62188;35.640;139.748;2023-04-21T12:22:30;100437.25;;;24.82;39.22
64115;BME280;62188;35.640;139.748;2023-04-21T12:24:56;100441.95;;;24.54;40.85
64115;BME280;62188;35.640;139.748;2023-04-21T12:27:21;100443.76;;;24.52;41.72